createdAt,value
2022-12-24T00:03:20.599Z,11.51
2022-12-24T00:08:40.881Z,11.55
2022-12-24T00:13:47.942Z,11.63
2022-12-24T00:19:15.628Z,11.64
2022-12-24T00:24:20.980Z,11.63
2022-12-24T00:29:35.174Z,11.62
2022-12-24T00:34:42.137Z,11.60
2022-12-24T00:39:46.835Z,11.61
2022-12-24T00:44:54.796Z,11.63
2022-12-24T00:50:00.627Z,11.58
2022-12-24T00:55:07.365Z,11.55
2022-12-24T01:00:12.493Z,11.54
2022-12-24T01:05:21.134Z,11.49
2022-12-24T01:10:30.067Z,11.53
2022-12-24T01:15:35.237Z,11.58
2022-12-24T01:20:43.622Z,11.63
2022-12-24T01:25:52.845Z,11.66
2022-12-24T01:30:57.807Z,11.67
2022-12-24T01:36:05.800Z,11.68
2022-12-24T01:41:32.971Z,11.69
2022-12-24T01:46:45.997Z,11.71
2022-12-24T01:51:55.067Z,11.72
2022-12-24T01:57:02.985Z,11.74
2022-12-24T02:02:09.895Z,11.71
2022-12-24T02:07:18.345Z,11.72
2022-12-24T02:12:22.741Z,11.75
2022-12-24T02:17:34.725Z,11.74
2022-12-24T02:22:57.419Z,11.76
2022-12-24T02:28:10.839Z,11.72
2022-12-24T02:33:32.383Z,11.77
2022-12-24T02:38:40.714Z,11.74
2022-12-24T02:43:49.004Z,11.76
2022-12-24T02:48:55.379Z,11.76
2022-12-24T02:54:01.941Z,11.78
2022-12-24T02:59:30.991Z,11.80
2022-12-24T03:04:52.879Z,11.80
2022-12-24T03:10:18.076Z,11.79
2022-12-24T03:15:33.887Z,11.77
2022-12-24T03:20:49.402Z,11.72
2022-12-24T03:25:59.747Z,11.64
2022-12-24T03:31:07.225Z,11.64
2022-12-24T03:36:18.644Z,11.67
2022-12-24T03:41:24.784Z,11.71
2022-12-24T03:46:31.222Z,11.75
2022-12-24T03:51:37.152Z,11.78
2022-12-24T03:56:45.326Z,11.78
2022-12-24T04:01:50.843Z,11.80
2022-12-24T04:07:00.753Z,11.83
2022-12-24T04:12:05.444Z,11.83
2022-12-24T04:17:14.911Z,11.83
2022-12-24T04:22:20.715Z,11.83
2022-12-24T04:27:30.754Z,11.83
2022-12-24T04:32:38.536Z,11.84
2022-12-24T04:37:47.215Z,11.88
2022-12-24T04:42:52.735Z,11.88
2022-12-24T04:48:00.138Z,11.87
2022-12-24T04:53:07.813Z,11.88
2022-12-24T04:58:26.739Z,11.87
2022-12-24T05:03:44.742Z,11.86
2022-12-24T05:09:00.639Z,11.87
2022-12-24T05:14:18.965Z,11.86
2022-12-24T05:19:24.880Z,11.84
2022-12-24T05:24:50.761Z,11.84
2022-12-24T05:29:54.935Z,11.80
2022-12-24T05:35:00.961Z,11.74
2022-12-24T05:40:09.779Z,11.63
2022-12-24T05:45:20.323Z,11.56
2022-12-24T05:50:26.323Z,11.45
2022-12-24T05:55:33.967Z,11.34
2022-12-24T06:00:40.675Z,11.29
2022-12-24T06:05:46.896Z,11.32
2022-12-24T06:11:05.094Z,11.37
2022-12-24T06:16:12.212Z,11.35
2022-12-24T06:21:19.358Z,11.34
2022-12-24T06:26:26.645Z,11.35
2022-12-24T06:31:35.144Z,11.31
2022-12-24T06:36:40.808Z,11.32
2022-12-24T06:41:49.558Z,11.30
2022-12-24T06:46:53.983Z,11.28
2022-12-24T06:51:59.318Z,11.30
2022-12-24T06:57:08.728Z,11.29
2022-12-24T07:02:21.321Z,11.30
2022-12-24T07:07:31.773Z,11.26
2022-12-24T07:13:09.196Z,11.13
2022-12-24T07:18:18.873Z,10.93
2022-12-24T07:23:29.716Z,10.81
2022-12-24T07:28:49.005Z,10.71
2022-12-24T07:34:10.167Z,10.62
2022-12-24T07:39:32.597Z,10.52
2022-12-24T07:50:09.543Z,10.45
2022-12-24T07:55:17.440Z,10.52
2022-12-24T08:00:25.833Z,10.55
2022-12-24T08:05:34.312Z,10.62
2022-12-24T08:10:56.771Z,10.71
2022-12-24T08:16:06.569Z,10.83
2022-12-24T08:21:11.486Z,10.87
2022-12-24T08:26:16.451Z,10.95
2022-12-24T08:31:24.723Z,10.87
2022-12-24T08:36:28.895Z,10.77
2022-12-24T08:41:36.421Z,10.73
2022-12-24T08:46:44.369Z,10.75
2022-12-24T08:51:50.812Z,10.79
2022-12-24T08:56:55.054Z,10.88
2022-12-24T09:02:08.211Z,10.99
2022-12-24T09:07:13.303Z,11.03
2022-12-24T09:12:20.370Z,11.10
2022-12-24T09:17:27.337Z,11.20
2022-12-24T09:22:38.855Z,11.41
2022-12-24T09:27:46.683Z,11.60
2022-12-24T09:33:05.333Z,11.70
2022-12-24T09:38:12.429Z,11.71
2022-12-24T09:43:21.901Z,11.71
2022-12-24T09:48:33.577Z,11.70
2022-12-24T09:53:46.949Z,11.74
2022-12-24T09:59:01.323Z,11.81
2022-12-24T10:04:16.756Z,11.73
2022-12-24T10:09:32.931Z,11.65
2022-12-24T10:14:52.756Z,11.66
2022-12-24T10:20:23.229Z,11.81
2022-12-24T10:25:32.222Z,11.89
2022-12-24T10:30:38.637Z,12.04
2022-12-24T10:35:50.930Z,12.28
2022-12-24T10:41:01.249Z,12.26
2022-12-24T10:46:11.039Z,12.22
2022-12-24T10:51:25.696Z,12.16
2022-12-24T10:56:30.298Z,12.12
2022-12-24T11:01:49.093Z,12.29
2022-12-24T11:06:58.416Z,12.32
2022-12-24T11:12:09.584Z,12.38
2022-12-24T11:17:31.553Z,12.50
2022-12-24T11:22:43.671Z,12.62
2022-12-24T11:27:56.630Z,12.71
2022-12-24T11:33:23.209Z,12.82
2022-12-24T11:38:38.689Z,12.85
2022-12-24T11:43:51.721Z,12.94
2022-12-24T11:49:17.752Z,13.05
2022-12-24T11:54:47.576Z,13.06
2022-12-24T11:59:53.441Z,13.03
2022-12-24T12:05:02.955Z,13.07
2022-12-24T12:10:18.930Z,13.14
2022-12-24T12:15:28.812Z,13.22
2022-12-24T12:20:37.971Z,13.19
2022-12-24T12:25:57.115Z,13.21
2022-12-24T12:31:13.760Z,13.21
2022-12-24T12:36:22.896Z,13.21
2022-12-24T12:41:45.365Z,13.20
2022-12-24T12:47:13.407Z,13.23
2022-12-24T12:52:29.405Z,13.24
2022-12-24T12:57:41.810Z,13.23
2022-12-24T13:03:13.830Z,13.21
2022-12-24T13:09:00.654Z,13.21
2022-12-24T13:14:35.962Z,13.21
2022-12-24T13:20:14.177Z,13.17
2022-12-24T13:25:27.480Z,12.98
2022-12-24T13:30:40.771Z,12.85
2022-12-24T13:36:07.064Z,12.83
2022-12-24T13:42:00.979Z,12.70
2022-12-24T13:47:33.103Z,12.64
2022-12-24T13:52:42.884Z,12.61
2022-12-24T13:57:56.842Z,12.62
2022-12-24T14:03:17.629Z,12.58
2022-12-24T14:08:34.420Z,12.55
2022-12-24T14:14:12.509Z,12.54
2022-12-24T14:19:22.415Z,12.46
2022-12-24T14:24:30.540Z,12.42
2022-12-24T14:29:40.389Z,12.31
2022-12-24T14:34:46.183Z,12.27
2022-12-24T14:39:57.075Z,12.23
2022-12-24T14:45:16.298Z,12.18
2022-12-24T14:50:45.638Z,12.13
2022-12-24T14:55:53.176Z,12.05
2022-12-24T15:01:04.307Z,11.96
2022-12-24T15:06:39.519Z,11.95
2022-12-24T15:11:46.840Z,11.97
2022-12-24T15:16:58.178Z,11.94
2022-12-24T15:22:06.670Z,11.83
2022-12-24T15:27:19.508Z,11.65
2022-12-24T15:32:24.686Z,11.49
2022-12-24T15:38:00.363Z,11.44
2022-12-24T15:43:14.521Z,11.40
2022-12-24T15:48:26.240Z,11.31
2022-12-24T15:53:36.211Z,11.27
2022-12-24T15:58:51.364Z,11.18
2022-12-24T16:04:18.463Z,11.04
2022-12-24T16:09:47.129Z,10.99
2022-12-24T16:15:04.487Z,10.88
2022-12-24T16:20:34.124Z,10.76
2022-12-24T16:25:48.710Z,10.65
2022-12-24T16:30:58.173Z,10.54
2022-12-24T16:36:05.276Z,10.46
2022-12-24T16:41:17.212Z,10.39
2022-12-24T16:46:36.534Z,10.31
2022-12-24T16:51:46.115Z,10.23
2022-12-24T16:57:06.848Z,10.18
2022-12-24T17:02:28.372Z,10.07
2022-12-24T17:07:42.957Z,10.01
2022-12-24T17:12:53.822Z,9.91
2022-12-24T17:18:07.149Z,9.82
2022-12-24T17:23:16.251Z,9.76
2022-12-24T17:28:30.555Z,9.70
2022-12-24T17:33:36.564Z,9.64
2022-12-24T17:38:42.440Z,9.60
2022-12-24T17:43:50.637Z,9.59
2022-12-24T17:48:55.363Z,9.66
2022-12-24T17:54:00.307Z,9.74
2022-12-24T17:59:10.205Z,9.79
2022-12-24T18:04:28.196Z,9.76
2022-12-24T18:09:33.841Z,9.68
2022-12-24T18:14:40.342Z,9.65
2022-12-24T18:19:45.409Z,9.55
2022-12-24T18:24:52.702Z,9.47
2022-12-24T18:29:59.092Z,9.41
2022-12-24T18:35:07.326Z,9.35
2022-12-24T18:40:12.878Z,9.32
2022-12-24T18:45:21.773Z,9.24
2022-12-24T18:50:27.967Z,9.21
2022-12-24T18:55:35.935Z,9.16
2022-12-24T19:00:46.050Z,9.14
2022-12-24T19:05:54.628Z,9.12
2022-12-24T19:10:58.749Z,9.06
2022-12-24T19:16:07.311Z,9.01
2022-12-24T19:21:20.796Z,8.97
2022-12-24T19:26:24.998Z,8.88
2022-12-24T19:31:32.625Z,8.84
2022-12-24T19:36:37.801Z,8.78
2022-12-24T19:41:47.229Z,8.72
2022-12-24T19:46:55.638Z,8.66
2022-12-24T19:52:00.106Z,8.59
2022-12-24T19:57:06.494Z,8.54
2022-12-24T20:02:15.614Z,8.47
2022-12-24T20:07:24.894Z,8.41
2022-12-24T20:12:30.826Z,8.35
2022-12-24T20:17:36.968Z,8.28
2022-12-24T20:22:41.284Z,8.20
2022-12-24T20:27:49.823Z,8.15
2022-12-24T20:32:58.514Z,8.09
2022-12-24T20:38:05.341Z,8.03
2022-12-24T20:43:10.519Z,8.00
2022-12-24T20:48:21.199Z,7.96
2022-12-24T20:53:26.414Z,7.89
2022-12-24T20:58:34.980Z,7.82
2022-12-24T21:03:41.439Z,7.77
2022-12-24T21:08:47.476Z,7.72
2022-12-24T21:13:56.475Z,7.69
2022-12-24T21:19:07.344Z,7.68
2022-12-24T21:24:14.538Z,7.67
2022-12-24T21:29:19.119Z,7.63
2022-12-24T21:34:35.518Z,7.59
2022-12-24T21:39:45.889Z,7.55
2022-12-24T21:44:52.563Z,7.54
2022-12-24T21:50:17.393Z,7.53
2022-12-24T21:55:21.676Z,7.49
2022-12-24T22:00:31.561Z,7.48
2022-12-24T22:05:45.649Z,7.50
2022-12-24T22:11:07.361Z,7.46
2022-12-24T22:16:16.684Z,7.38
2022-12-24T22:21:27.000Z,7.31
2022-12-24T22:26:32.956Z,7.28
2022-12-24T22:31:38.881Z,7.24
2022-12-24T22:36:47.564Z,7.25
2022-12-24T22:41:56.140Z,7.30
2022-12-24T22:47:01.375Z,7.31
2022-12-24T22:52:09.023Z,7.29
2022-12-24T22:57:17.144Z,7.29
2022-12-24T23:02:29.329Z,7.30
2022-12-24T23:07:40.430Z,7.25
2022-12-24T23:13:01.956Z,7.22
2022-12-24T23:18:07.031Z,7.18
2022-12-24T23:23:17.963Z,7.17
2022-12-24T23:28:26.474Z,7.14
2022-12-24T23:33:37.573Z,7.15
2022-12-24T23:38:44.831Z,7.14
2022-12-24T23:43:50.560Z,7.14
2022-12-24T23:48:56.644Z,7.11
2022-12-24T23:54:13.458Z,7.11
2022-12-24T23:59:18.035Z,7.08
